Airfield :







YOU CAN JOIN US ON...

 
LOGIN :

Register | Disclaimer

   EN    FR    IT 

 









Legend :    VFR   Marginal VFR   IFR   Intensive IFR   Very Intensive IFR
Visi :
Ceiling :
>= 8 km
>= 3000ft
5 to 8 km
1000 to 3000 ft
1500m to 5 km
500 to 1000 ft
800 to 1500m
200 to 500 ft
< 800m
< 200 ft
Symbols :   Thunderstorms  Fog  Heavy snow  Heavy precipitations  Wind > 20 kt







- Airport Elevation : 1663 ft
- IATA code : SLK


KSLK - Adirondack Regional

CURRENT METAR :
  • 221951Z AUTO 23012G16KT 10SM SCT041 SCT048 BKN080 26/17 A2999 RMK AO2 SLP151 T02610167

EXPIRED METARs :
  • 221851Z AUTO 24010KT 10SM FEW036 26/18 A3000 RMK AO2 SLP156 T02610178
  • 221751Z AUTO 23009KT 10SM SCT031 24/17 A3003 RMK AO2 SLP165 T02440172 10261 20100 58021

TAF KSLK
Valid from the 22 at 18:00 until the 23 at 18:00 UTC


221729Z 2218/2318 24012KT P6SM BKN035
FM230100 22011KT P6SM SCT120
FM231200 23010KT P6SM VCSH BKN035
FM231600 23012G26KT P6SM VCSH BKN025
No reported NOTAMs for that airfield.



MET'MAP, your aeronautical weather chart ! - Copyright ORBIFLY December 2007 - Disclaimer

ORBIFLY MET'MAP TEAM :

Programming & Development : Alexandra Zaïnal
Concept & Development : Baudouin d'Aumeries
Co-Development & Prog : Marc-Olivier Méhu
Technical & hardware support : Manuel Goepfert

Contact : metmap@orbifly.com




SOURCES & CREDITS :

   NOAA